Time;durP1;ratioP1;P1;durP2;ratioP2;P2;SDS_P1;SDS_P2;PMS_P1;PMS_P2;Temp;Humidity;BMP_temperature;BMP_pressure;BME280_temperature;BME280_humidity;BME280_pressure;Samples;Min_cycle;Max_cycle;Signal;HPM_P1;HPM_P2
2023/05/02 00:00:57;;;;;;;;;;;;;;;;;;;;;
2023/05/02 00:08:00;;;;;;;6.80;6.10;;;;;;;9.87;87.62;95671.03;6064750;23;20528;-85
2023/05/02 00:11:21;;;;;;;;;;;;;;;;;;;;;
2023/05/02 00:18:12;;;;;;;7.17;6.47;;;;;;;9.76;88.49;95677.19;5952031;24;20163;-85
2023/05/02 00:21:09;;;;;;;6.83;6.13;;;;;;;9.74;88.80;95673.94;5913165;24;20310;-85
2023/05/02 00:26:54;;;;;;;6.77;6.17;;;;;;;9.70;88.98;95674.31;5924277;24;20172;-85
2023/05/02 00:33:05;;;;;;;;;;;;;;;;;;;;;
2023/05/02 00:36:06;;;;;;;7.57;6.80;;;;;;;9.67;89.27;95678.03;5816806;24;20280;-85
2023/05/02 00:38:58;;;;;;;;;;;;;;;;;;;;;
2023/05/02 00:42:35;;;;;;;;;;;;;;;;;;;;;
2023/05/02 00:49:20;;;;;;;8.20;7.40;;;;;;;9.52;90.30;95680.22;5785097;24;20194;-86
2023/05/02 00:52:06;;;;;;;7.80;7.10;;;;;;;9.50;90.29;95676.94;5788986;24;20191;-86
2023/05/02 00:55:19;;;;;;;7.97;7.10;;;;;;;9.50;90.86;95676.13;5823490;24;20269;-85
2023/05/02 00:58:12;;;;;;;9.47;7.53;;;;;;;9.51;91.47;95675.16;5817160;24;20273;-84
2023/05/02 01:04:39;;;;;;;7.50;6.63;;;;;;;9.66;90.48;95691.94;5844108;24;20226;-84
2023/05/02 01:07:58;;;;;;;7.87;7.07;;;;;;;9.71;90.47;95689.75;5843561;24;20169;-85
2023/05/02 01:11:26;;;;;;;7.73;7.03;;;;;;;9.73;90.33;95687.03;5925361;24;20646;-85
2023/05/02 01:14:49;;;;;;;7.30;6.53;;;;;;;9.75;89.75;95685.94;6036838;23;20194;-85
2023/05/02 01:18:41;;;;;;;;;;;;;;;;;;;;;
2023/05/02 01:29:08;;;;;;;7.37;6.57;;;;;;;9.75;90.25;95679.94;6007275;23;20563;-85
2023/05/02 01:35:07;;;;;;;8.10;7.00;;;;;;;9.68;90.13;95691.81;6008909;23;20634;-85
2023/05/02 01:38:00;;;;;;;7.47;6.67;;;;;;;9.64;90.24;95692.09;5929247;24;20191;-86
2023/05/02 01:41:04;;;;;;;7.63;6.63;;;;;;;9.58;90.30;95689.22;5929647;24;20203;-86
2023/05/02 01:43:58;;;;;;;6.93;6.30;;;;;;;9.51;90.45;95691.53;5952278;24;20190;-86
2023/05/02 01:53:32;;;;;;;8.00;7.30;;;;;;;9.17;92.48;95706.66;5938791;24;20172;-85
2023/05/02 01:56:06;;;;;;;8.57;7.03;;;;;;;9.08;93.68;95694.53;5829549;24;20526;-85
2023/05/02 01:58:37;;;;;;;8.03;6.93;;;;;;;9.09;92.97;95706.53;5816686;24;20194;-86
2023/05/02 02:04:44;;;;;;;9.07;7.33;;;;;;;9.02;93.58;95705.44;5851629;24;20295;-86
2023/05/02 02:08:03;;;;;;;7.63;7.03;;;;;;;8.98;93.71;95698.88;5920845;24;20191;-85
2023/05/02 02:11:14;;;;;;;7.50;6.80;;;;;;;8.97;93.75;95705.00;5878350;24;20164;-84
2023/05/02 02:14:36;;;;;;;8.13;7.33;;;;;;;8.93;94.01;95706.25;5943314;24;20262;-85
2023/05/02 02:17:44;;;;;;;8.00;7.20;;;;;;;8.93;94.01;95709.66;5931859;24;20191;-84
2023/05/02 02:20:48;;;;;;;8.17;7.13;;;;;;;8.90;94.18;95711.69;5935044;24;20626;-85
2023/05/02 02:24:30;;;;;;;7.60;7.00;;;;;;;8.87;94.81;95714.53;5932795;24;20170;-85
2023/05/02 02:34:33;;;;;;;8.03;7.20;;;;;;;8.83;94.29;95734.69;5950930;24;20525;-86
2023/05/02 02:37:53;;;;;;;8.43;6.70;;;;;;;8.85;94.37;95737.16;5927519;24;20177;-85
2023/05/02 02:44:42;;;;;;;;;;;;;;;;;;;;;
2023/05/02 02:47:44;;;;;;;10.90;7.37;;;;;;;8.84;94.34;95743.31;5815950;24;20253;-85
2023/05/02 02:55:02;;;;;;;;;;;;;;;;;;;;;
2023/05/02 03:05:16;;;;;;;8.90;7.27;;;;;;;8.73;94.81;95755.38;5790265;24;20175;-85
2023/05/02 03:14:24;;;;;;;8.33;7.47;;;;;;;8.59;95.36;95762.69;6182077;23;20230;-84
2023/05/02 03:17:07;;;;;;;8.07;7.27;;;;;;;8.60;95.29;95774.69;6129973;23;20169;-86
2023/05/02 03:20:51;;;;;;;7.83;7.10;;;;;;;8.56;95.36;95774.09;6161158;23;20182;-84
2023/05/02 03:23:48;;;;;;;7.97;7.23;;;;;;;8.57;95.43;95772.34;6144314;23;20186;-84
2023/05/02 03:27:30;;;;;;;7.83;7.03;;;;;;;8.57;95.34;95775.78;6151420;23;20167;-86
2023/05/02 03:30:10;;;;;;;8.53;7.73;;;;;;;8.56;95.10;95783.66;6125352;23;20190;-85
2023/05/02 03:33:08;;;;;;;8.30;7.50;;;;;;;8.57;95.01;95782.69;6103485;23;20159;-85
2023/05/02 03:39:21;;;;;;;8.60;7.80;;;;;;;8.58;94.74;95800.72;6117087;23;20784;-84
2023/05/02 03:42:02;;;;;;;9.47;8.57;;;;;;;8.58;94.61;95803.28;6126448;23;20609;-85
2023/05/02 03:47:41;;;;;;;7.90;7.20;;;;;;;8.65;94.56;95801.81;6101028;23;20184;-86
2023/05/02 03:50:15;;;;;;;8.63;7.73;;;;;;;8.66;94.76;95800.88;6101433;23;20679;-85
2023/05/02 03:53:10;;;;;;;8.30;7.47;;;;;;;8.73;94.74;95801.16;6071431;23;20214;-86
2023/05/02 03:56:32;;;;;;;8.50;7.63;;;;;;;8.78;94.07;95805.00;6027459;23;20177;-85
2023/05/02 04:06:21;;;;;;;8.23;7.43;;;;;;;8.91;93.35;95807.38;5896866;24;20201;-85
2023/05/02 04:09:17;;;;;;;8.90;8.10;;;;;;;8.97;93.19;95814.63;5846988;24;20205;-84
2023/05/02 04:12:42;;;;;;;11.03;9.17;;;;;;;8.94;93.47;95814.91;5832669;24;20193;-85
2023/05/02 04:19:36;;;;;;;;;;;;;;;;;;;;;
2023/05/02 04:22:46;;;;;;;9.57;8.67;;;;;;;8.95;92.25;95816.53;5817022;24;20238;-85
2023/05/02 04:25:55;;;;;;;9.80;8.80;;;;;;;8.98;91.59;95821.44;5838880;24;20174;-85
2023/05/02 04:29:15;;;;;;;10.17;9.17;;;;;;;8.95;91.37;95820.88;5817650;24;20279;-85
2023/05/02 04:31:40;;;;;;;11.13;9.43;;;;;;;8.96;90.86;95815.56;5819367;24;20194;-85
2023/05/02 04:34:06;;;;;;;10.27;9.27;;;;;;;9.00;90.63;95821.31;5815779;24;20589;-85
2023/05/02 04:36:32;;;;;;;10.73;9.63;;;;;;;9.00;90.69;95819.53;5819279;24;20231;-82
2023/05/02 04:38:58;;;;;;;11.57;10.33;;;;;;;9.03;90.30;95824.47;5855506;24;20190;-84
2023/05/02 04:41:23;;;;;;;11.43;10.20;;;;;;;9.02;89.69;95830.59;5981834;24;20247;-83
2023/05/02 04:43:48;;;;;;;11.87;10.77;;;;;;;9.10;89.61;95840.31;5935466;24;20164;-83
2023/05/02 04:46:15;;;;;;;12.00;10.80;;;;;;;9.17;89.57;95840.59;6013221;23;20670;-83
2023/05/02 04:48:41;;;;;;;12.93;11.63;;;;;;;9.18;89.01;95856.00;6047343;23;20189;-81
2023/05/02 04:51:08;;;;;;;17.33;13.23;;;;;;;9.17;89.25;95862.13;6072074;23;20159;-82
2023/05/02 04:53:33;;;;;;;18.23;15.33;;;;;;;9.21;89.09;95865.31;6072389;23;20195;-82
2023/05/02 04:55:58;;;;;;;19.63;17.63;;;;;;;9.27;88.98;95873.34;6201861;23;20162;-81
2023/05/02 04:58:24;;;;;;;16.57;14.83;;;;;;;9.24;89.06;95870.22;6190807;23;20224;-82
2023/05/02 05:00:49;;;;;;;13.03;11.73;;;;;;;9.16;89.23;95875.22;6190883;23;20170;-80
2023/05/02 05:03:14;;;;;;;12.00;10.80;;;;;;;9.20;89.55;95880.03;6190717;23;20150;-82
2023/05/02 05:05:40;;;;;;;11.77;10.50;;;;;;;9.17;89.41;95882.03;6191076;23;20150;-82
2023/05/02 05:08:05;;;;;;;12.27;11.07;;;;;;;9.31;88.78;95889.47;6187531;23;20161;-81
2023/05/02 05:10:30;;;;;;;12.90;11.03;;;;;;;9.31;89.08;95890.28;6166065;23;20192;-82
2023/05/02 05:12:56;;;;;;;13.13;11.40;;;;;;;9.43;88.45;95892.78;6189938;23;20631;-82
2023/05/02 05:15:22;;;;;;;12.47;11.27;;;;;;;9.40;88.50;95893.03;6190485;23;20188;-81
2023/05/02 05:17:48;;;;;;;12.93;11.37;;;;;;;9.49;88.16;95894.84;6190148;23;20166;-81
2023/05/02 05:20:13;;;;;;;14.83;12.00;;;;;;;9.54;88.17;95893.50;6188265;23;20213;-80
2023/05/02 05:22:40;;;;;;;14.67;12.30;;;;;;;9.51;88.71;95900.72;6188252;23;20169;-82
2023/05/02 05:25:06;;;;;;;13.60;12.13;;;;;;;9.59;87.98;95906.06;6213201;23;20608;-80
2023/05/02 05:27:32;;;;;;;15.23;13.73;;;;;;;9.63;87.53;95908.25;6187033;23;20248;-83
2023/05/02 05:29:58;;;;;;;15.10;13.60;;;;;;;9.61;87.98;95911.91;6187575;23;20188;-82
2023/05/02 05:32:24;;;;;;;14.83;13.37;;;;;;;9.63;87.63;95910.03;6187426;23;20185;-82
2023/05/02 05:34:53;;;;;;;14.57;13.00;;;;;;;9.65;87.49;95908.94;6190613;23;20249;-81
2023/05/02 05:37:19;;;;;;;15.30;13.70;;;;;;;9.72;87.61;95919.63;6189695;23;20185;-80
2023/05/02 05:39:47;;;;;;;14.80;13.13;;;;;;;9.80;86.96;95922.34;6185623;23;20200;-80
2023/05/02 05:42:12;;;;;;;14.17;12.67;;;;;;;9.75;87.08;95919.34;6189290;23;20153;-82
2023/05/02 05:44:38;;;;;;;15.07;13.47;;;;;;;9.80;86.90;95927.53;6189923;23;20592;-83
2023/05/02 05:47:03;;;;;;;15.00;13.40;;;;;;;9.79;86.65;95933.66;6187392;23;20662;-82
2023/05/02 05:49:29;;;;;;;19.50;14.23;;;;;;;9.88;86.54;95939.81;6189229;23;20998;-81
2023/05/02 05:51:54;;;;;;;16.07;14.47;;;;;;;9.92;86.73;95939.44;6214606;23;20158;-82
2023/05/02 05:54:19;;;;;;;16.27;14.57;;;;;;;10.05;86.18;95935.75;6190783;23;20217;-80
2023/05/02 05:56:45;;;;;;;16.20;14.50;;;;;;;10.13;85.91;95941.09;6188741;23;20161;-80
2023/05/02 05:59:10;;;;;;;17.83;15.80;;;;;;;10.25;84.49;95949.59;6189206;23;20182;-82
2023/05/02 06:01:36;;;;;;;16.17;14.57;;;;;;;10.31;84.45;95947.28;6190088;23;20162;-83
2023/05/02 06:04:03;;;;;;;18.00;14.93;;;;;;;10.32;84.27;95948.94;6191679;23;20604;-83
2023/05/02 06:06:30;;;;;;;16.17;14.50;;;;;;;10.34;84.06;95952.22;6188747;23;20162;-81
2023/05/02 06:08:55;;;;;;;16.73;14.93;;;;;;;10.45;83.63;95957.28;6190684;23;20185;-82
2023/05/02 06:11:21;;;;;;;17.20;15.40;;;;;;;10.54;84.20;95954.81;6190488;23;20177;-80
2023/05/02 06:13:46;;;;;;;18.83;15.97;;;;;;;10.52;83.05;95954.16;6191133;23;20511;-83
2023/05/02 06:16:11;;;;;;;16.27;14.57;;;;;;;10.62;82.38;95963.56;6188641;23;20528;-83
2023/05/02 06:18:37;;;;;;;17.03;15.33;;;;;;;10.69;82.72;95959.47;6189728;23;20185;-82
2023/05/02 06:21:05;;;;;;;15.93;14.23;;;;;;;10.68;83.23;95975.16;6189757;23;20154;-82
2023/05/02 06:23:33;;;;;;;19.80;15.30;;;;;;;10.58;83.44;95971.75;6216635;23;20500;-81
2023/05/02 06:26:00;;;;;;;16.57;14.70;;;;;;;10.56;83.34;95965.88;6189585;23;20158;-80
2023/05/02 06:28:25;;;;;;;17.37;14.20;;;;;;;10.62;82.32;95970.53;6190680;23;20181;-82
2023/05/02 06:31:01;;;;;;;15.47;13.40;;;;;;;10.67;82.18;95970.94;6189560;23;20166;-84
2023/05/02 06:33:27;;;;;;;16.87;15.07;;;;;;;10.77;82.49;95982.13;6187642;23;20596;-83
2023/05/02 06:35:53;;;;;;;17.67;15.83;;;;;;;10.59;82.63;95982.00;6187792;23;20212;-84
2023/05/02 06:38:18;;;;;;;21.87;16.77;;;;;;;10.66;83.38;95983.09;6187067;23;20799;-83
2023/05/02 06:40:44;;;;;;;17.83;15.93;;;;;;;10.81;83.23;95987.88;6188661;23;20232;-83
2023/05/02 06:43:10;;;;;;;20.23;16.33;;;;;;;10.75;82.90;95992.66;6213307;23;20556;-83
2023/05/02 06:45:35;;;;;;;18.33;16.40;;;;;;;10.76;82.90;95993.47;6188312;23;20150;-82
2023/05/02 06:48:00;;;;;;;18.50;16.60;;;;;;;10.81;82.62;95995.69;6187668;23;20162;-83
2023/05/02 06:50:26;;;;;;;18.63;16.73;;;;;;;10.86;83.34;96007.28;6189063;23;20154;-84
2023/05/02 06:52:51;;;;;;;19.77;17.77;;;;;;;10.96;83.31;96005.53;6188867;23;20161;-83
2023/05/02 06:55:16;;;;;;;20.53;18.37;;;;;;;10.97;83.53;96009.75;6213725;23;20227;-83
2023/05/02 06:57:42;;;;;;;21.03;18.87;;;;;;;10.90;83.09;96010.44;6188667;23;20539;-83
2023/05/02 07:00:08;;;;;;;22.83;20.33;;;;;;;10.78;83.92;96007.19;6188681;23;20170;-83
2023/05/02 07:02:34;;;;;;;22.10;19.70;;;;;;;11.11;82.40;96012.88;6189408;23;20644;-82
2023/05/02 07:04:59;;;;;;;22.87;19.83;;;;;;;11.14;81.71;96023.81;6189537;23;20178;-83
2023/05/02 07:07:25;;;;;;;23.00;20.50;;;;;;;11.05;82.08;96025.47;6188656;23;20175;-83
2023/05/02 07:09:51;;;;;;;24.53;21.23;;;;;;;10.89;82.96;96033.00;6187851;23;20578;-83
2023/05/02 07:12:16;;;;;;;24.70;21.60;;;;;;;10.93;82.61;96030.94;6189775;23;20585;-84
2023/05/02 07:14:41;;;;;;;28.30;22.53;;;;;;;10.84;84.36;96032.59;6188802;23;20174;-84
2023/05/02 07:17:07;;;;;;;27.17;22.43;;;;;;;10.79;84.03;96040.00;6187233;23;20163;-83
2023/05/02 07:19:32;;;;;;;33.27;25.53;;;;;;;10.64;84.92;96049.13;6188119;23;20208;-81
2023/05/02 07:21:58;;;;;;;29.27;26.07;;;;;;;10.63;85.44;96045.72;6189842;23;20158;-80
2023/05/02 07:24:23;;;;;;;33.73;28.17;;;;;;;10.58;84.94;96053.06;6186949;23;20156;-83
2023/05/02 07:26:48;;;;;;;32.50;28.27;;;;;;;10.75;85.29;96049.00;6186175;23;20158;-80
2023/05/02 07:29:13;;;;;;;35.63;28.70;;;;;;;10.62;85.64;96048.47;6186921;23;20503;-81
2023/05/02 07:31:39;;;;;;;36.40;30.50;;;;;;;10.57;84.89;96048.03;6187870;23;20592;-82
2023/05/02 07:34:04;;;;;;;38.67;30.27;;;;;;;10.53;85.78;96049.25;6188112;23;20193;-79
2023/05/02 07:36:30;;;;;;;40.73;31.53;;;;;;;10.55;86.06;96049.94;6187241;23;20674;-83
2023/05/02 07:39:01;;;;;;;38.10;30.97;;;;;;;10.57;84.99;96046.25;6188885;23;20555;-84
2023/05/02 07:41:27;;;;;;;38.17;30.97;;;;;;;10.64;84.92;96056.91;6212752;23;20244;-83
2023/05/02 07:43:52;;;;;;;39.73;31.23;;;;;;;10.74;84.72;96052.56;6214097;23;20831;-85
2023/05/02 07:46:17;;;;;;;38.17;31.40;;;;;;;10.66;84.66;96049.81;6215457;23;20154;-83
2023/05/02 08:59:27;;;;;;;37.27;30.40;;;;;;;13.90;67.77;96108.53;6165503;23;20498;-82
2023/05/02 09:02:00;;;;;;;36.20;31.47;;;;;;;13.43;68.79;96111.47;6175134;23;20604;-85
2023/05/02 09:04:33;;;;;;;38.53;31.47;;;;;;;13.86;68.96;96112.41;6163850;23;20153;-86
2023/05/02 09:06:59;;;;;;;34.43;30.30;;;;;;;13.94;67.14;96114.25;6163923;23;20154;-84
2023/05/02 09:09:24;;;;;;;36.80;31.13;;;;;;;13.96;69.21;96117.50;6189345;23;20166;-82
2023/05/02 09:11:51;;;;;;;36.07;31.47;;;;;;;13.83;69.90;96116.16;6189231;23;20169;-85
2023/05/02 09:14:16;;;;;;;38.57;32.30;;;;;;;14.13;66.34;96121.84;6189002;23;20193;-85
2023/05/02 09:16:42;;;;;;;39.17;30.27;;;;;;;14.09;65.81;96118.75;6214466;23;20496;-84
2023/05/02 09:19:08;;;;;;;34.77;29.53;;;;;;;14.78;65.88;96122.16;6191115;23;20178;-86
2023/05/02 09:21:40;;;;;;;37.87;30.50;;;;;;;14.95;65.95;96129.06;6217097;23;20579;-85
2023/05/02 09:24:17;;;;;;;34.63;30.17;;;;;;;15.03;65.51;96123.03;6189984;23;20527;-85
2023/05/02 09:26:43;;;;;;;33.53;28.93;;;;;;;15.26;64.87;96124.03;6214046;23;20157;-85
2023/05/02 09:29:10;;;;;;;32.00;27.93;;;;;;;15.66;62.36;96124.25;6164435;23;20182;-86
2023/05/02 09:31:36;;;;;;;34.40;29.13;;;;;;;15.76;62.95;96117.03;6164622;23;20219;-85
2023/05/02 09:34:20;;;;;;;30.80;27.47;;;;;;;16.24;62.50;96123.13;6188937;23;20252;-86
2023/05/02 09:36:55;;;;;;;37.83;27.33;;;;;;;15.56;61.86;96124.38;6212471;23;20165;-85
2023/05/02 09:39:45;;;;;;;33.88;27.48;;;;;;;15.85;60.21;96121.28;6189010;23;20579;-86
2023/05/02 09:42:31;;;;;;;31.60;27.95;;;;;;;16.03;61.44;96119.28;6160818;23;20157;-85
2023/05/02 09:45:03;;;;;;;29.65;26.70;;;;;;;16.41;57.97;96129.97;6162480;23;20469;-84
2023/05/02 09:47:32;;;;;;;28.92;25.63;;;;;;;16.81;58.14;96131.63;6210994;23;20202;-86
2023/05/02 09:49:57;;;;;;;30.70;26.27;;;;;;;16.08;59.87;96124.84;6186586;23;20260;-85
2023/05/02 09:52:25;;;;;;;33.17;26.98;;;;;;;15.84;61.30;96127.50;6186341;23;20193;-84
2023/05/02 09:54:52;;;;;;;32.30;27.75;;;;;;;16.19;60.21;96120.22;6185968;23;20177;-86
2023/05/02 09:57:17;;;;;;;29.70;26.25;;;;;;;15.56;60.54;96119.97;6185442;23;20466;-85
2023/05/02 09:59:59;;;;;;;29.35;26.02;;;;;;;15.76;59.61;96124.88;6186168;23;20669;-85
2023/05/02 10:02:25;;;;;;;30.25;26.23;;;;;;;16.42;59.00;96123.72;6183762;23;20192;-85
2023/05/02 10:04:52;;;;;;;27.35;23.55;;;;;;;16.44;58.10;96129.66;6185714;23;20158;-85
2023/05/02 10:07:18;;;;;;;26.92;23.98;;;;;;;16.75;57.20;96134.13;6160555;23;20161;-86
2023/05/02 10:09:46;;;;;;;28.60;25.40;;;;;;;16.76;57.29;96133.94;6161197;23;20186;-85
2023/05/02 10:12:14;;;;;;;33.10;26.30;;;;;;;16.06;59.50;96133.84;6185792;23;20157;-85
2023/05/02 10:14:40;;;;;;;27.38;24.27;;;;;;;16.32;59.45;96131.78;6211024;23;20178;-85
2023/05/02 10:17:12;;;;;;;28.08;25.17;;;;;;;16.32;59.91;96134.41;6209870;23;20181;-85
2023/05/02 10:19:59;;;;;;;30.25;25.80;;;;;;;16.05;60.00;96137.44;6160640;23;20186;-85
2023/05/02 10:22:24;;;;;;;28.03;25.23;;;;;;;16.24;58.87;96139.69;6212055;23;20149;-85
2023/05/02 10:24:52;;;;;;;27.67;24.15;;;;;;;16.62;56.28;96138.09;6160081;23;20162;-85
2023/05/02 10:27:17;;;;;;;26.08;23.30;;;;;;;17.12;55.89;96133.41;6208873;23;20161;-85
2023/05/02 10:29:43;;;;;;;27.67;24.40;;;;;;;16.89;54.74;96138.66;6184892;23;20178;-84
2023/05/02 10:32:09;;;;;;;26.50;23.60;;;;;;;16.55;52.97;96137.13;6159267;23;20165;-84
2023/05/02 10:34:35;;;;;;;28.42;25.02;;;;;;;16.27;53.50;96133.31;6185167;23;20209;-84
2023/05/02 10:37:01;;;;;;;28.70;25.60;;;;;;;15.94;55.78;96133.38;6160554;23;20157;-84
2023/05/02 10:39:27;;;;;;;27.27;24.38;;;;;;;15.37;58.98;96138.63;6188408;23;20632;-85
2023/05/02 10:41:54;;;;;;;28.48;25.48;;;;;;;15.32;59.24;96127.81;6186315;23;20189;-84
2023/05/02 10:44:37;;;;;;;29.23;25.25;;;;;;;16.23;57.83;96126.75;6187243;23;20158;-84
2023/05/02 10:47:21;;;;;;;30.23;26.92;;;;;;;16.62;57.21;96135.47;6187602;23;20154;-83
2023/05/02 10:49:53;;;;;;;30.02;25.95;;;;;;;16.89;56.64;96128.16;6163132;23;20184;-85
2023/05/02 10:52:25;;;;;;;28.20;25.05;;;;;;;17.23;56.07;96140.91;6186855;23;20618;-85
2023/05/02 10:54:51;;;;;;;29.00;25.83;;;;;;;16.84;54.56;96133.91;6187246;23;20236;-85
2023/05/02 10:57:19;;;;;;;29.75;26.42;;;;;;;17.09;53.95;96129.34;6161513;23;20261;-85
2023/05/02 10:59:45;;;;;;;29.13;25.98;;;;;;;16.64;52.34;96125.63;6162167;23;20791;-85
2023/05/02 11:02:24;;;;;;;28.75;25.73;;;;;;;17.69;50.68;96120.69;6189997;23;20169;-84
2023/05/02 11:05:04;;;;;;;29.45;24.45;;;;;;;16.99;51.22;96118.25;6186826;23;20161;-86
2023/05/02 11:07:38;;;;;;;25.92;23.17;;;;;;;17.20;52.69;96131.56;6186035;23;20177;-86
2023/05/02 11:10:16;;;;;;;27.42;24.15;;;;;;;17.10;53.21;96125.72;6187404;23;20173;-85
2023/05/02 11:12:52;;;;;;;29.48;25.33;;;;;;;17.06;52.92;96128.88;6213055;23;20138;-85
2023/05/02 11:15:46;;;;;;;26.77;22.88;;;;;;;17.11;52.49;96127.34;6211879;23;20232;-86
2023/05/02 11:18:12;;;;;;;31.00;26.13;;;;;;;16.97;52.47;96128.94;6188132;23;20197;-86
2023/05/02 11:20:44;;;;;;;31.67;26.23;;;;;;;16.84;54.58;96133.91;6189664;23;20245;-86
2023/05/02 11:23:12;;;;;;;33.65;28.48;;;;;;;16.47;53.60;96133.72;6214159;23;20164;-85
2023/05/02 11:25:45;;;;;;;31.90;27.42;;;;;;;16.99;54.07;96134.00;6217044;23;20530;-83
2023/05/02 11:28:35;;;;;;;32.92;27.33;;;;;;;16.76;55.07;96135.75;6216156;23;20165;-84
2023/05/02 11:31:01;;;;;;;32.13;28.02;;;;;;;17.35;54.46;96131.63;6190564;23;20154;-85
2023/05/02 11:33:27;;;;;;;32.80;28.85;;;;;;;17.47;52.67;96132.84;6189215;23;20150;-85
2023/05/02 11:36:04;;;;;;;33.70;28.23;;;;;;;17.16;53.23;96132.09;6188717;23;20169;-86
2023/05/02 11:38:37;;;;;;;34.45;28.75;;;;;;;17.06;52.45;96134.94;6189438;23;20178;-85
2023/05/02 11:41:03;;;;;;;30.13;26.85;;;;;;;17.63;52.23;96125.84;6190404;23;20150;-84
2023/05/02 11:43:39;;;;;;;33.58;28.13;;;;;;;17.62;52.53;96138.16;6164393;23;20162;-85
2023/05/02 11:46:06;;;;;;;31.95;28.08;;;;;;;17.15;52.77;96138.34;6188171;23;20158;-85
2023/05/02 11:48:31;;;;;;;36.22;28.80;;;;;;;16.75;56.08;96142.00;6213618;23;20244;-85
2023/05/02 11:51:02;;;;;;;31.58;27.85;;;;;;;16.57;55.92;96140.41;6189751;23;20193;-85
2023/05/02 11:53:35;;;;;;;33.35;28.42;;;;;;;16.60;57.71;96142.66;6214534;23;20196;-85
2023/05/02 11:56:07;;;;;;;37.78;29.27;;;;;;;16.28;59.73;96134.94;6163810;23;20142;-85
2023/05/02 11:58:33;;;;;;;40.28;32.65;;;;;;;16.28;62.50;96141.00;6187902;23;20197;-84
2023/05/02 12:01:31;;;;;;;;;;;;;;;;;;;;;
2023/05/02 12:04:12;;;;;;;42.20;34.10;;;;;;;16.12;65.48;96136.59;6216215;23;20221;-84
2023/05/02 12:07:01;;;;;;;40.75;33.15;;;;;;;16.00;65.87;96137.13;6191258;23;20153;-85
2023/05/02 12:09:53;;;;;;;39.15;33.30;;;;;;;16.12;65.86;96136.59;6190122;23;20173;-84
2023/05/02 12:12:29;;;;;;;41.55;32.80;;;;;;;15.96;65.38;96136.63;6190243;23;20205;-82
2023/05/02 12:15:14;;;;;;;;;;;;;;;;;;;;;
2023/05/02 12:22:06;;;;;;;;;;;;;;;;;;;;;
2023/05/02 12:24:48;;;;;;;;;;;;;;;;;;;;;
2023/05/02 12:34:04;;;;;;;38.67;28.98;;;;;;;15.23;61.47;96141.88;6094649;23;20181;-83
2023/05/02 12:36:55;;;;;;;32.65;28.25;;;;;;;15.60;61.03;96141.38;6094959;23;20591;-82
2023/05/02 12:54:12;;;;;;;;;;;;;;;;;;;;;
2023/05/02 13:03:52;;;;;;;;;;;;;;;;;;;;;
2023/05/02 13:10:36;;;;;;;;;;;;;;;;;;;;;
2023/05/02 13:14:01;;;;;;;23.98;20.70;;;;;;;16.43;52.97;96139.31;5819712;24;20187;-85
2023/05/02 13:16:28;;;;;;;24.48;19.08;;;;;;;16.30;53.35;96138.19;5813957;24;20195;-84
2023/05/02 13:18:56;;;;;;;26.08;21.23;;;;;;;15.26;54.89;96146.75;5792093;24;20192;-84
2023/05/02 13:21:24;;;;;;;26.42;19.38;;;;;;;15.48;57.61;96143.53;5770908;24;20239;-84
2023/05/02 13:24:18;;;;;;;;;;;;;;;;;;;;;
2023/05/02 13:26:53;;;;;;;23.85;19.20;;;;;;;16.35;54.83;96138.53;5817467;24;20262;-83
2023/05/02 13:30:16;;;;;;;;;;;;;;;;;;;;;
2023/05/02 13:57:05;;;;;;;16.23;13.57;;;;;;;17.90;47.32;96124.47;6193248;23;20600;-84
2023/05/02 14:00:09;;;;;;;;;;;;;;;;;;;;;
2023/05/02 14:03:16;;;;;;;;;;;;;;;;;;;;;
2023/05/02 14:09:43;;;;;;;;;;;;;;;;;;;;;
2023/05/02 14:12:17;;;;;;;14.80;12.38;;;;;;;18.61;45.28;96136.19;6216948;23;20173;-85
2023/05/02 14:17:53;;;;;;;15.82;12.88;;;;;;;18.53;44.42;96144.16;6189926;23;20918;-86
2023/05/02 14:23:59;;;;;;;13.73;10.98;;;;;;;19.02;43.75;96133.06;6217616;23;20162;-82
2023/05/02 14:26:25;;;;;;;14.02;10.05;;;;;;;17.52;44.13;96135.75;6067351;23;20247;-82
2023/05/02 14:28:50;;;;;;;9.93;8.60;;;;;;;17.72;43.21;96141.38;6067242;23;20232;-81
2023/05/02 14:31:15;;;;;;;10.10;8.82;;;;;;;17.90;43.60;96134.97;6066499;23;20167;-80
2023/05/02 14:33:41;;;;;;;12.27;9.20;;;;;;;18.06;42.98;96133.00;6087844;23;20763;-82
2023/05/02 14:36:07;;;;;;;12.02;10.70;;;;;;;17.46;44.43;96146.97;6065450;23;20168;-81
2023/05/02 14:38:32;;;;;;;15.32;12.25;;;;;;;16.89;45.65;96141.28;6065746;23;20195;-81
2023/05/02 14:40:57;;;;;;;12.27;11.02;;;;;;;17.09;47.50;96139.03;6047318;23;20654;-85
2023/05/02 14:43:23;;;;;;;15.70;10.85;;;;;;;16.81;47.62;96149.19;6071576;23;20777;-85
2023/05/02 14:45:48;;;;;;;11.60;8.50;;;;;;;16.83;45.23;96149.81;6083272;23;20164;-85
2023/05/02 14:48:16;;;;;;;8.75;6.97;;;;;;;16.55;46.74;96136.31;6080125;23;20284;-84
2023/05/02 14:50:41;;;;;;;7.93;7.00;;;;;;;15.74;46.77;96143.38;6079334;23;20228;-85
2023/05/02 14:53:06;;;;;;;10.82;8.35;;;;;;;15.68;46.56;96140.59;6076533;23;20235;-87
2023/05/02 14:55:40;;;;;;;11.80;8.65;;;;;;;15.56;47.43;96133.06;6078747;23;20180;-86
2023/05/02 14:58:07;;;;;;;8.38;6.85;;;;;;;15.90;46.64;96137.28;6079118;23;20216;-86
2023/05/02 15:00:36;;;;;;;8.35;6.47;;;;;;;15.94;45.45;96141.22;6085543;23;20587;-86
2023/05/02 15:03:06;;;;;;;9.10;7.22;;;;;;;15.87;45.32;96142.88;6108058;23;20168;-86
2023/05/02 15:05:32;;;;;;;9.88;7.35;;;;;;;16.31;45.43;96139.81;6163184;23;20841;-83
2023/05/02 15:07:58;;;;;;;9.05;8.07;;;;;;;16.97;44.90;96144.66;6213888;23;20153;-87
2023/05/02 15:10:23;;;;;;;7.57;5.53;;;;;;;17.30;41.99;96143.63;6187770;23;20208;-84
2023/05/02 15:12:51;;;;;;;7.03;5.90;;;;;;;17.10;41.91;96146.72;6190258;23;20158;-85
2023/05/02 15:15:17;;;;;;;13.55;12.45;;;;;;;17.15;41.49;96148.84;6163661;23;20181;-87
2023/05/02 15:17:42;;;;;;;17.35;15.75;;;;;;;17.67;41.57;96148.09;6187259;23;20168;-84
2023/05/02 15:20:08;;;;;;;19.52;18.10;;;;;;;18.06;41.96;96143.53;6162214;23;20184;-85
2023/05/02 15:22:34;;;;;;;6.70;5.90;;;;;;;17.46;40.97;96143.53;6162194;23;20170;-84
2023/05/02 15:24:59;;;;;;;7.97;5.80;;;;;;;17.75;41.88;96143.63;6186083;23;20619;-85
2023/05/02 15:27:24;;;;;;;5.88;5.28;;;;;;;17.54;42.84;96146.09;6161161;23;20181;-85
2023/05/02 15:29:50;;;;;;;8.02;5.68;;;;;;;17.74;41.96;96139.38;6186615;23;20178;-85
2023/05/02 15:32:15;;;;;;;6.10;5.35;;;;;;;17.74;42.02;96136.75;6186680;23;20162;-85
2023/05/02 15:34:40;;;;;;;7.93;5.88;;;;;;;17.63;41.94;96145.03;6187211;23;20628;-84
2023/05/02 15:37:06;;;;;;;6.20;4.80;;;;;;;17.41;41.34;96151.94;6161702;23;20154;-85
2023/05/02 15:39:32;;;;;;;5.07;4.57;;;;;;;18.05;41.32;96141.09;6186997;23;20178;-85
2023/05/02 15:41:57;;;;;;;5.95;4.97;;;;;;;17.07;42.03;96144.44;6162593;23;20162;-84
2023/05/02 15:44:24;;;;;;;7.32;5.60;;;;;;;17.04;43.72;96147.41;6163854;23;20154;-86
2023/05/02 15:46:51;;;;;;;7.45;5.70;;;;;;;16.89;43.22;96144.72;6192669;23;20200;-85
2023/05/02 15:49:16;;;;;;;8.43;5.90;;;;;;;17.32;43.68;96146.94;6163683;23;20260;-85
2023/05/02 15:51:41;;;;;;;7.22;5.82;;;;;;;17.24;45.22;96159.09;6188374;23;20169;-85
2023/05/02 15:54:07;;;;;;;8.65;5.88;;;;;;;17.52;43.25;96155.97;6163385;23;20525;-85
2023/05/02 15:56:37;;;;;;;6.75;5.43;;;;;;;17.51;42.98;96159.59;6160254;23;20865;-86
2023/05/02 15:59:05;;;;;;;7.43;5.68;;;;;;;16.64;44.83;96158.88;6186157;23;20270;-86
2023/05/02 16:01:31;;;;;;;7.05;5.45;;;;;;;17.24;43.46;96161.72;6167193;23;20218;-86
2023/05/02 16:03:56;;;;;;;6.10;4.72;;;;;;;17.12;42.78;96165.72;6208745;23;20166;-85
2023/05/02 16:06:21;;;;;;;6.45;4.85;;;;;;;17.02;43.33;96159.88;6190388;22;20162;-85
2023/05/02 16:08:46;;;;;;;7.85;5.10;;;;;;;17.16;42.45;96169.66;6213252;23;20241;-86
2023/05/02 16:11:12;;;;;;;4.93;4.03;;;;;;;17.22;41.91;96163.69;6193316;23;20154;-85
2023/05/02 16:13:37;;;;;;;5.82;3.80;;;;;;;16.98;42.94;96163.84;6195191;23;20154;-86
2023/05/02 16:16:03;;;;;;;4.13;3.72;;;;;;;17.56;41.36;96165.09;6164374;23;20213;-85
2023/05/02 16:18:28;;;;;;;6.28;4.15;;;;;;;17.15;40.81;96160.16;6188030;23;20216;-85
2023/05/02 16:20:57;;;;;;;5.25;3.03;;;;;;;17.02;40.48;96178.25;6165094;23;20220;-86
2023/05/02 16:23:23;;;;;;;3.55;2.83;;;;;;;16.96;40.01;96171.91;6164239;23;20162;-85
2023/05/02 16:25:48;;;;;;;3.38;2.47;;;;;;;17.38;39.22;96161.97;6165186;23;20162;-85